createdAt,value
2024-01-29T00:01:40.621Z,52.64
2024-01-29T00:04:09.779Z,53.14
2024-01-29T00:06:37.698Z,52.19
2024-01-29T00:09:05.360Z,52.39
2024-01-29T00:11:34.297Z,52.32
2024-01-29T00:14:02.739Z,52.27
2024-01-29T00:16:30.879Z,52.10
2024-01-29T00:18:58.582Z,51.51
2024-01-29T00:21:27.609Z,52.41
2024-01-29T00:23:57.077Z,52.24
2024-01-29T00:26:24.953Z,52.19
2024-01-29T00:28:52.529Z,52.36
2024-01-29T00:31:21.998Z,51.23
2024-01-29T00:33:50.022Z,51.57
2024-01-29T00:36:17.746Z,51.81
2024-01-29T00:38:47.230Z,51.81
2024-01-29T00:41:14.931Z,52.41
2024-01-29T00:43:42.572Z,52.63
2024-01-29T00:46:10.186Z,52.15
2024-01-29T00:48:38.081Z,52.82
2024-01-29T00:51:05.720Z,51.90
2024-01-29T00:53:33.326Z,52.02
2024-01-29T00:56:02.247Z,51.54
2024-01-29T00:58:29.996Z,52.33
2024-01-29T01:00:57.668Z,51.91
2024-01-29T01:03:25.715Z,51.73
2024-01-29T01:05:53.462Z,52.46
2024-01-29T01:08:21.248Z,52.71
2024-01-29T01:10:48.954Z,52.22
2024-01-29T01:13:17.985Z,51.85
2024-01-29T01:15:45.738Z,51.80
2024-01-29T01:18:13.697Z,52.87
2024-01-29T01:20:41.392Z,53.05
2024-01-29T01:23:09.058Z,52.33
2024-01-29T01:25:36.639Z,52.84
2024-01-29T01:28:04.772Z,52.52
2024-01-29T01:30:33.843Z,52.56
2024-01-29T01:33:01.557Z,52.75
2024-01-29T01:35:29.206Z,52.80
2024-01-29T01:37:56.901Z,53.54
2024-01-29T01:40:25.043Z,52.62
2024-01-29T01:42:52.881Z,52.86
2024-01-29T01:45:20.609Z,53.35
2024-01-29T01:47:49.629Z,53.48
2024-01-29T01:50:17.751Z,52.54
2024-01-29T01:52:45.622Z,53.36
2024-01-29T01:55:13.551Z,52.68
2024-01-29T01:57:42.041Z,52.21
2024-01-29T02:00:12.469Z,52.99
2024-01-29T02:02:40.877Z,53.10
2024-01-29T02:05:10.436Z,53.31
2024-01-29T02:07:38.214Z,53.11
2024-01-29T02:10:06.786Z,52.32
2024-01-29T02:12:34.560Z,53.01
2024-01-29T02:15:02.277Z,53.21
2024-01-29T02:17:29.939Z,52.78
2024-01-29T02:19:57.944Z,52.55
2024-01-29T02:22:26.994Z,52.68
2024-01-29T02:24:55.984Z,52.93
2024-01-29T02:27:23.662Z,52.48
2024-01-29T02:29:51.482Z,52.94
2024-01-29T02:32:19.118Z,53.25
2024-01-29T02:34:46.877Z,53.28
2024-01-29T02:37:14.757Z,52.93
2024-01-29T02:39:42.398Z,52.88
2024-01-29T02:42:11.395Z,53.00
2024-01-29T02:44:38.985Z,52.78
2024-01-29T02:47:06.681Z,52.89
2024-01-29T02:49:35.468Z,52.55
2024-01-29T02:52:03.335Z,52.82
2024-01-29T02:54:31.081Z,53.00
2024-01-29T02:56:58.774Z,53.29
2024-01-29T02:59:27.751Z,53.20
2024-01-29T03:01:55.577Z,52.99
2024-01-29T03:04:23.850Z,52.75
2024-01-29T03:06:51.637Z,53.43
2024-01-29T03:09:19.262Z,52.79
2024-01-29T03:11:46.886Z,53.10
2024-01-29T03:14:14.652Z,52.60
2024-01-29T03:16:43.615Z,52.72
2024-01-29T03:19:11.363Z,52.50
2024-01-29T03:21:39.448Z,53.25
2024-01-29T03:24:07.340Z,53.93
2024-01-29T03:26:35.000Z,53.24
2024-01-29T03:29:02.606Z,52.36
2024-01-29T03:31:30.320Z,52.70
2024-01-29T03:33:59.709Z,52.88
2024-01-29T03:36:27.616Z,53.13
2024-01-29T03:38:55.386Z,52.92
2024-01-29T03:41:22.990Z,52.20
2024-01-29T03:43:50.602Z,52.19
2024-01-29T03:46:18.203Z,52.63
2024-01-29T03:48:45.934Z,52.71
2024-01-29T03:51:15.013Z,53.44
2024-01-29T03:53:42.664Z,53.13
2024-01-29T03:56:10.496Z,53.12
2024-01-29T03:58:38.140Z,53.11
2024-01-29T04:01:05.809Z,53.32
2024-01-29T04:03:33.640Z,52.81
2024-01-29T04:06:01.483Z,52.77
2024-01-29T04:08:30.483Z,53.47
2024-01-29T04:10:58.253Z,53.08
2024-01-29T04:13:25.973Z,53.31
2024-01-29T04:15:54.568Z,53.42
2024-01-29T04:18:22.678Z,53.52
2024-01-29T04:20:50.953Z,53.99
2024-01-29T04:23:18.800Z,53.98
2024-01-29T04:25:47.831Z,53.50
2024-01-29T04:28:15.438Z,53.44
2024-01-29T04:30:43.786Z,54.18
2024-01-29T04:33:11.492Z,54.24
2024-01-29T04:35:39.212Z,53.58
2024-01-29T04:38:07.245Z,53.47
2024-01-29T04:40:39.995Z,53.18
2024-01-29T04:43:09.150Z,53.62
2024-01-29T04:45:36.976Z,53.33
2024-01-29T04:48:05.078Z,52.82
2024-01-29T04:50:32.770Z,53.55
2024-01-29T04:53:00.443Z,53.87
2024-01-29T04:55:28.225Z,53.80
2024-01-29T04:57:56.046Z,54.59
2024-01-29T05:00:25.300Z,54.34
2024-01-29T05:02:53.312Z,54.38
2024-01-29T05:05:21.063Z,53.19
2024-01-29T05:07:48.824Z,53.99
2024-01-29T05:10:16.795Z,53.52
2024-01-29T05:12:44.474Z,53.93
2024-01-29T05:15:13.071Z,53.24
2024-01-29T05:17:42.142Z,53.70
2024-01-29T05:20:10.900Z,53.44
2024-01-29T05:22:38.615Z,53.89
2024-01-29T05:25:06.659Z,54.14
2024-01-29T05:27:34.369Z,54.21
2024-01-29T05:30:02.553Z,53.86
2024-01-29T05:32:30.468Z,54.22
2024-01-29T05:35:00.255Z,53.61
2024-01-29T05:37:28.054Z,53.91
2024-01-29T05:39:55.758Z,53.88
2024-01-29T05:42:23.594Z,54.25
2024-01-29T05:44:51.978Z,54.08
2024-01-29T05:47:19.950Z,53.95
2024-01-29T05:49:47.852Z,53.85
2024-01-29T05:52:16.809Z,53.78
2024-01-29T05:54:44.689Z,54.04
2024-01-29T05:57:12.841Z,54.23
2024-01-29T05:59:40.775Z,54.28
2024-01-29T06:02:08.736Z,53.89
2024-01-29T06:04:36.659Z,52.83
2024-01-29T06:07:04.715Z,53.82
2024-01-29T06:09:33.768Z,54.24
2024-01-29T06:12:01.467Z,54.03
2024-01-29T06:14:29.384Z,54.50
2024-01-29T06:16:57.488Z,54.75
2024-01-29T06:19:25.509Z,54.14
2024-01-29T06:21:53.433Z,54.85
2024-01-29T06:24:21.185Z,54.14
2024-01-29T06:26:50.213Z,54.25
2024-01-29T06:29:17.897Z,54.19
2024-01-29T06:31:45.545Z,54.56
2024-01-29T06:34:13.299Z,53.97
2024-01-29T06:36:41.016Z,54.12
2024-01-29T06:39:09.443Z,53.12
2024-01-29T06:41:37.205Z,53.45
2024-01-29T06:44:06.310Z,53.62
2024-01-29T06:46:34.104Z,53.45
2024-01-29T06:49:01.865Z,53.60
2024-01-29T06:51:29.614Z,53.95
2024-01-29T06:53:58.626Z,54.01
2024-01-29T06:56:26.318Z,54.37
2024-01-29T06:58:54.195Z,54.50
2024-01-29T07:01:23.404Z,54.00
2024-01-29T07:03:51.271Z,53.39
2024-01-29T07:06:19.893Z,53.31
2024-01-29T07:08:47.878Z,53.91
2024-01-29T07:11:16.117Z,54.64
2024-01-29T07:13:43.718Z,53.98
2024-01-29T07:16:11.564Z,53.76
2024-01-29T07:18:40.666Z,53.88
2024-01-29T07:21:08.483Z,54.40
2024-01-29T07:23:36.080Z,54.99
2024-01-29T07:26:03.738Z,55.03
2024-01-29T07:28:32.650Z,54.80
2024-01-29T07:31:00.393Z,55.08
2024-01-29T07:33:28.221Z,55.74
2024-01-29T07:35:57.241Z,55.10
2024-01-29T07:38:24.871Z,54.11
2024-01-29T07:40:52.519Z,54.24
2024-01-29T07:43:20.316Z,54.61
2024-01-29T07:45:47.943Z,55.15
2024-01-29T07:48:15.784Z,54.56
2024-01-29T07:50:43.445Z,55.78
2024-01-29T07:53:12.441Z,55.85
2024-01-29T07:55:40.034Z,55.50
2024-01-29T07:58:09.685Z,55.41
2024-01-29T08:00:37.409Z,54.79
2024-01-29T08:03:07.289Z,54.31
2024-01-29T08:05:34.944Z,55.01
2024-01-29T08:08:02.728Z,54.91
2024-01-29T08:10:31.665Z,55.02
2024-01-29T08:12:59.329Z,53.92
2024-01-29T08:15:29.626Z,54.09
2024-01-29T08:17:57.682Z,54.76
2024-01-29T08:20:26.833Z,53.63
2024-01-29T08:22:54.874Z,54.39
2024-01-29T08:25:22.638Z,54.94
2024-01-29T08:27:51.661Z,54.69
2024-01-29T08:30:19.731Z,55.11
2024-01-29T08:32:47.366Z,54.54
2024-01-29T08:35:15.381Z,54.54
2024-01-29T08:37:43.193Z,55.20
2024-01-29T08:40:11.691Z,54.82
2024-01-29T08:42:39.469Z,55.12
2024-01-29T08:45:08.981Z,53.71
2024-01-29T08:47:36.678Z,54.82
2024-01-29T08:50:04.775Z,54.56
2024-01-29T08:52:32.533Z,54.84
2024-01-29T08:55:00.564Z,55.22
2024-01-29T08:57:29.765Z,54.48
2024-01-29T08:59:57.368Z,54.34
2024-01-29T09:02:28.858Z,54.16
2024-01-29T09:04:56.593Z,54.05
2024-01-29T09:07:24.692Z,54.63
2024-01-29T09:09:52.361Z,53.94
2024-01-29T09:12:20.011Z,53.26
2024-01-29T09:14:47.723Z,53.10
2024-01-29T09:17:15.356Z,53.59
2024-01-29T09:19:46.398Z,52.75
2024-01-29T09:22:14.358Z,52.30
2024-01-29T09:24:42.339Z,52.92
2024-01-29T09:27:10.024Z,53.00
2024-01-29T09:29:37.673Z,52.92
2024-01-29T09:32:05.891Z,52.11
2024-01-29T09:34:34.206Z,51.99
2024-01-29T09:37:03.281Z,51.90
2024-01-29T09:39:31.066Z,51.00
2024-01-29T09:42:04.920Z,51.32
2024-01-29T09:44:38.809Z,51.18
2024-01-29T09:47:07.668Z,51.18
2024-01-29T09:49:36.493Z,50.60
2024-01-29T09:52:06.665Z,49.86
2024-01-29T09:54:36.065Z,48.84
2024-01-29T09:57:03.940Z,48.16
2024-01-29T09:59:31.730Z,48.06
2024-01-29T10:02:02.373Z,47.18
2024-01-29T10:04:30.355Z,47.21
2024-01-29T10:06:58.576Z,46.62
2024-01-29T10:09:27.656Z,47.03
2024-01-29T10:11:55.280Z,46.44
2024-01-29T10:14:23.028Z,45.29
2024-01-29T10:16:52.186Z,45.15
2024-01-29T10:19:20.200Z,44.42
2024-01-29T10:21:48.487Z,44.37
2024-01-29T10:24:17.547Z,43.96
2024-01-29T10:26:47.544Z,44.33
2024-01-29T10:29:17.402Z,43.60
2024-01-29T10:31:45.282Z,42.93
2024-01-29T10:34:13.201Z,42.12
2024-01-29T10:36:41.786Z,42.36
2024-01-29T10:39:14.236Z,40.92
2024-01-29T10:41:48.244Z,40.75
2024-01-29T10:44:18.713Z,41.94
2024-01-29T10:46:49.010Z,40.52
2024-01-29T10:49:17.583Z,39.80
2024-01-29T10:51:47.324Z,39.63
2024-01-29T10:54:15.524Z,38.41
2024-01-29T10:56:44.131Z,34.65
2024-01-29T10:59:14.095Z,36.06
2024-01-29T11:01:52.115Z,33.82
2024-01-29T11:04:26.205Z,33.54
2024-01-29T11:06:58.255Z,32.09
2024-01-29T11:09:30.041Z,33.40
2024-01-29T11:11:58.134Z,33.14
2024-01-29T11:14:27.355Z,32.00
2024-01-29T11:16:55.058Z,31.23
2024-01-29T11:19:23.158Z,30.86
2024-01-29T11:21:51.520Z,29.90
2024-01-29T11:24:23.286Z,31.08
2024-01-29T11:26:53.197Z,29.36
2024-01-29T11:29:23.650Z,30.32
2024-01-29T11:31:55.031Z,29.82
2024-01-29T11:34:28.003Z,29.09
2024-01-29T11:36:56.354Z,28.93
2024-01-29T11:39:25.954Z,28.77
2024-01-29T11:41:54.555Z,27.70
2024-01-29T11:44:23.420Z,28.85
2024-01-29T11:46:53.148Z,28.38
2024-01-29T11:49:27.677Z,28.30
2024-01-29T11:51:56.057Z,28.54
2024-01-29T11:54:26.706Z,28.12
2024-01-29T11:56:54.527Z,28.71
2024-01-29T11:59:22.351Z,29.79
2024-01-29T12:01:52.269Z,29.67
2024-01-29T12:04:21.821Z,29.81
2024-01-29T12:06:54.391Z,29.78
2024-01-29T12:09:22.186Z,30.39
2024-01-29T12:11:49.770Z,29.85
2024-01-29T12:14:17.362Z,30.03
2024-01-29T12:16:45.489Z,30.24
2024-01-29T12:19:13.200Z,30.62
2024-01-29T12:21:43.225Z,31.06
2024-01-29T12:24:11.476Z,31.49
2024-01-29T12:26:40.338Z,30.83
2024-01-29T12:29:09.008Z,30.05
2024-01-29T12:31:39.537Z,29.76
2024-01-29T12:34:09.010Z,30.07
2024-01-29T12:36:37.139Z,29.87
2024-01-29T12:39:12.540Z,29.39
2024-01-29T12:41:41.706Z,29.57
2024-01-29T12:44:13.422Z,29.31
2024-01-29T12:46:41.868Z,29.17
2024-01-29T12:49:09.680Z,28.66
2024-01-29T12:51:37.501Z,29.24
2024-01-29T12:54:07.715Z,28.77
2024-01-29T12:56:35.341Z,29.58
2024-01-29T12:59:07.466Z,29.37
2024-01-29T13:01:35.961Z,28.90
2024-01-29T13:04:04.162Z,28.78
2024-01-29T13:06:32.286Z,28.85
2024-01-29T13:09:00.022Z,28.56
2024-01-29T13:11:29.216Z,28.19
2024-01-29T13:13:57.113Z,28.69
2024-01-29T13:16:26.150Z,28.37
2024-01-29T13:18:54.242Z,28.42
2024-01-29T13:21:22.360Z,28.36
2024-01-29T13:23:50.147Z,28.09
2024-01-29T13:26:19.382Z,28.60
2024-01-29T13:28:48.680Z,28.86
2024-01-29T13:31:16.514Z,28.53
2024-01-29T13:33:44.379Z,28.59
2024-01-29T13:36:12.272Z,28.51
2024-01-29T13:38:40.044Z,28.75
2024-01-29T13:41:10.044Z,28.57
2024-01-29T13:43:37.728Z,29.21
2024-01-29T13:46:06.968Z,29.29
2024-01-29T13:48:34.689Z,29.71
2024-01-29T13:51:02.517Z,29.05
2024-01-29T13:53:30.205Z,29.03
2024-01-29T13:55:57.943Z,29.11
2024-01-29T13:58:26.682Z,29.62
2024-01-29T14:00:54.563Z,29.94
2024-01-29T14:03:23.654Z,30.73
2024-01-29T14:05:51.429Z,31.16
2024-01-29T14:08:19.337Z,31.22
2024-01-29T14:10:47.019Z,31.50
2024-01-29T14:13:17.239Z,31.33
2024-01-29T14:15:45.053Z,31.83
2024-01-29T14:18:12.677Z,32.57
2024-01-29T14:20:41.694Z,33.04
2024-01-29T14:23:10.351Z,33.69
2024-01-29T14:25:38.011Z,33.86
2024-01-29T14:28:06.393Z,34.45
2024-01-29T14:30:34.209Z,34.89
2024-01-29T14:33:02.003Z,34.61
2024-01-29T14:35:29.743Z,34.87
2024-01-29T14:37:58.850Z,35.16
2024-01-29T14:40:26.465Z,35.42
2024-01-29T14:42:54.183Z,35.96
2024-01-29T14:45:21.826Z,35.70
2024-01-29T14:47:50.482Z,36.44
2024-01-29T14:50:18.418Z,36.35
2024-01-29T14:52:46.101Z,36.75
2024-01-29T14:55:15.260Z,36.95
2024-01-29T14:57:42.992Z,37.47
2024-01-29T15:00:12.508Z,37.28
2024-01-29T15:02:40.156Z,37.88
2024-01-29T15:05:10.195Z,37.59
2024-01-29T15:07:38.046Z,37.72
2024-01-29T15:10:09.219Z,38.11
2024-01-29T15:12:39.985Z,38.15
2024-01-29T15:15:08.587Z,38.10
2024-01-29T15:17:36.541Z,38.57
2024-01-29T15:20:07.391Z,39.10
2024-01-29T15:22:35.136Z,39.70
2024-01-29T15:25:04.451Z,39.55
2024-01-29T15:27:32.410Z,40.22
2024-01-29T15:30:02.101Z,40.42
2024-01-29T15:32:29.814Z,40.96
2024-01-29T15:34:57.617Z,40.95
2024-01-29T15:37:25.353Z,42.55
2024-01-29T15:39:53.081Z,41.98
2024-01-29T15:42:20.798Z,42.12
2024-01-29T15:44:48.474Z,42.87
2024-01-29T15:47:17.974Z,42.49
2024-01-29T15:49:45.633Z,43.70
2024-01-29T15:52:13.403Z,43.41
2024-01-29T15:54:41.290Z,43.19
2024-01-29T15:57:09.075Z,44.29
2024-01-29T15:59:37.483Z,44.19
2024-01-29T16:02:07.617Z,44.19
2024-01-29T16:04:39.822Z,44.46
2024-01-29T16:07:08.440Z,45.22
2024-01-29T16:09:36.164Z,45.13
2024-01-29T16:12:04.165Z,45.12
2024-01-29T16:14:31.869Z,46.40
2024-01-29T16:16:59.646Z,46.80
2024-01-29T16:19:27.617Z,47.39
2024-01-29T16:21:57.678Z,47.23
2024-01-29T16:24:25.989Z,46.97
2024-01-29T16:26:53.833Z,47.17
2024-01-29T16:29:21.517Z,47.29
2024-01-29T16:31:53.543Z,47.15
2024-01-29T16:34:21.610Z,47.05
2024-01-29T16:36:49.540Z,47.81
2024-01-29T16:39:18.705Z,47.56
2024-01-29T16:41:46.312Z,47.19
2024-01-29T16:44:15.331Z,47.45
2024-01-29T16:46:43.368Z,48.26
2024-01-29T16:49:11.262Z,47.90
2024-01-29T16:51:39.036Z,47.88
2024-01-29T16:54:06.742Z,48.26
2024-01-29T16:56:37.535Z,47.99
2024-01-29T16:59:08.604Z,47.88
2024-01-29T17:01:36.490Z,48.11
2024-01-29T17:04:04.817Z,47.87
2024-01-29T17:06:32.946Z,48.13
2024-01-29T17:09:00.928Z,48.33
2024-01-29T17:11:28.680Z,48.06
2024-01-29T17:13:57.740Z,48.41
2024-01-29T17:16:25.559Z,48.51
2024-01-29T17:18:53.268Z,48.77
2024-01-29T17:21:21.631Z,48.96
2024-01-29T17:23:49.730Z,49.80
2024-01-29T17:26:17.501Z,49.64
2024-01-29T17:28:46.129Z,49.37
2024-01-29T17:31:15.194Z,49.53
2024-01-29T17:33:43.093Z,49.61
2024-01-29T17:36:11.355Z,49.92
2024-01-29T17:38:39.219Z,49.46
2024-01-29T17:41:06.874Z,49.62
2024-01-29T17:43:34.678Z,49.47
2024-01-29T17:46:02.339Z,49.69
2024-01-29T17:48:31.698Z,49.12
2024-01-29T17:50:59.397Z,48.99
2024-01-29T17:53:29.794Z,49.16
2024-01-29T17:55:57.896Z,49.40
2024-01-29T17:58:25.592Z,49.30
2024-01-29T18:00:53.460Z,49.65
2024-01-29T18:03:23.742Z,49.53
2024-01-29T18:05:52.862Z,50.43
2024-01-29T18:08:21.352Z,49.96
2024-01-29T18:10:49.172Z,49.43
2024-01-29T18:13:16.899Z,50.10
2024-01-29T18:15:44.699Z,50.33
2024-01-29T18:18:12.390Z,49.11
2024-01-29T18:20:40.110Z,49.86
2024-01-29T18:23:10.927Z,50.24
2024-01-29T18:25:40.214Z,50.60
2024-01-29T18:28:08.239Z,50.61
2024-01-29T18:30:35.941Z,50.21
2024-01-29T18:33:04.453Z,49.82
2024-01-29T18:35:32.277Z,49.93
2024-01-29T18:37:59.927Z,50.45
2024-01-29T18:40:33.853Z,50.41
2024-01-29T18:43:01.897Z,50.52
2024-01-29T18:45:29.641Z,50.51
2024-01-29T18:47:57.442Z,50.60
2024-01-29T18:50:25.293Z,50.68
2024-01-29T18:52:53.014Z,50.30
2024-01-29T18:55:20.678Z,50.58
2024-01-29T18:57:49.818Z,50.40
2024-01-29T19:00:18.691Z,50.54
2024-01-29T19:02:46.383Z,50.39
2024-01-29T19:05:14.712Z,50.57
2024-01-29T19:07:48.257Z,50.79
2024-01-29T19:10:16.499Z,50.44
2024-01-29T19:12:44.345Z,51.01
2024-01-29T19:15:13.405Z,50.72
2024-01-29T19:17:41.057Z,50.39
2024-01-29T19:20:10.203Z,50.91
2024-01-29T19:22:37.924Z,50.73
2024-01-29T19:25:06.916Z,51.25
2024-01-29T19:27:34.696Z,50.92
2024-01-29T19:30:02.383Z,51.32
2024-01-29T19:32:31.483Z,51.18
2024-01-29T19:34:59.308Z,51.04
2024-01-29T19:37:30.492Z,51.23
2024-01-29T19:40:02.288Z,50.76
2024-01-29T19:42:30.125Z,51.21
2024-01-29T19:44:57.839Z,51.19
2024-01-29T19:47:25.518Z,51.41
2024-01-29T19:49:57.472Z,51.30
2024-01-29T19:52:26.067Z,51.05
2024-01-29T19:54:53.783Z,50.56
2024-01-29T19:57:22.180Z,51.35
2024-01-29T19:59:49.787Z,51.26
2024-01-29T20:02:17.423Z,50.97
2024-01-29T20:04:45.234Z,50.88
2024-01-29T20:07:14.373Z,51.60
2024-01-29T20:09:42.107Z,51.22
2024-01-29T20:12:09.924Z,51.27
2024-01-29T20:14:38.993Z,51.40
2024-01-29T20:17:06.638Z,51.47
2024-01-29T20:19:34.434Z,52.10
2024-01-29T20:22:02.335Z,52.41
2024-01-29T20:24:31.523Z,52.27
2024-01-29T20:26:59.188Z,51.36
2024-01-29T20:29:27.390Z,52.37
2024-01-29T20:31:55.559Z,52.54
2024-01-29T20:34:23.311Z,52.07
2024-01-29T20:36:51.122Z,51.89
2024-01-29T20:39:18.909Z,52.03
2024-01-29T20:41:49.901Z,51.86
2024-01-29T20:44:17.559Z,52.57
2024-01-29T20:46:47.338Z,51.88
2024-01-29T20:49:16.071Z,51.97
2024-01-29T20:51:43.908Z,52.40
2024-01-29T20:54:11.905Z,52.54
2024-01-29T20:56:40.231Z,52.98
2024-01-29T20:59:09.485Z,52.03
2024-01-29T21:01:37.331Z,53.34
2024-01-29T21:04:05.299Z,52.74
2024-01-29T21:06:33.654Z,52.88
2024-01-29T21:09:01.382Z,52.51
2024-01-29T21:11:28.987Z,52.28
2024-01-29T21:13:56.713Z,52.20
2024-01-29T21:16:28.451Z,51.98
2024-01-29T21:18:58.627Z,52.09
2024-01-29T21:21:28.997Z,52.01
2024-01-29T21:23:56.652Z,51.40
2024-01-29T21:26:28.131Z,52.11
2024-01-29T21:28:56.041Z,53.10
2024-01-29T21:31:25.227Z,52.37
2024-01-29T21:33:53.092Z,52.43
2024-01-29T21:36:21.863Z,52.95
2024-01-29T21:38:49.504Z,53.09
2024-01-29T21:41:17.109Z,52.72
2024-01-29T21:43:44.781Z,52.77
2024-01-29T21:46:12.586Z,52.89
2024-01-29T21:48:41.877Z,52.82
2024-01-29T21:51:09.757Z,52.57
2024-01-29T21:53:37.860Z,52.91
2024-01-29T21:56:06.152Z,51.72
2024-01-29T21:58:33.772Z,52.19
2024-01-29T22:01:01.485Z,53.15
2024-01-29T22:03:29.251Z,53.23
2024-01-29T22:05:58.277Z,53.16
2024-01-29T22:08:28.259Z,52.34
2024-01-29T22:10:56.209Z,52.85
2024-01-29T22:13:23.997Z,52.29
2024-01-29T22:15:51.717Z,53.14
2024-01-29T22:18:19.365Z,53.19
2024-01-29T22:20:47.048Z,52.54
2024-01-29T22:23:16.021Z,52.33
2024-01-29T22:25:43.662Z,52.87
2024-01-29T22:28:11.320Z,52.43
2024-01-29T22:30:39.042Z,52.38
2024-01-29T22:33:07.912Z,52.67
2024-01-29T22:35:35.637Z,52.45
2024-01-29T22:38:03.413Z,52.32
2024-01-29T22:40:32.396Z,53.07
2024-01-29T22:43:00.119Z,52.69
2024-01-29T22:45:27.991Z,53.42
2024-01-29T22:47:55.793Z,52.74
2024-01-29T22:50:23.473Z,53.35
2024-01-29T22:52:51.157Z,53.02
2024-01-29T22:55:19.101Z,53.22
2024-01-29T22:57:48.171Z,53.25
2024-01-29T23:00:22.675Z,53.12
2024-01-29T23:02:50.399Z,52.78
2024-01-29T23:05:18.350Z,52.96
2024-01-29T23:07:46.536Z,52.95
2024-01-29T23:10:14.803Z,53.28
2024-01-29T23:12:42.532Z,53.19
2024-01-29T23:15:12.561Z,53.54
2024-01-29T23:17:40.236Z,53.56
2024-01-29T23:20:11.393Z,53.53
2024-01-29T23:22:39.208Z,53.32
2024-01-29T23:25:07.509Z,53.51
2024-01-29T23:27:36.942Z,52.70
2024-01-29T23:30:06.509Z,52.33
2024-01-29T23:32:35.534Z,52.79
2024-01-29T23:35:03.196Z,53.15
2024-01-29T23:37:30.872Z,53.49
2024-01-29T23:39:58.696Z,53.67
2024-01-29T23:42:26.399Z,54.12
2024-01-29T23:44:54.120Z,53.55
2024-01-29T23:47:21.729Z,53.90
2024-01-29T23:49:50.801Z,53.62
2024-01-29T23:52:26.804Z,53.43
2024-01-29T23:54:54.673Z,53.18
2024-01-29T23:57:22.427Z,53.48
2024-01-29T23:59:51.560Z,53.60
